createdAt,value
2022-11-19T00:00:20.152Z,92.32
2022-11-19T00:01:20.126Z,92.42
2022-11-19T00:02:20.165Z,92.11
2022-11-19T00:03:20.151Z,92.32
2022-11-19T00:04:20.093Z,92.42
2022-11-19T00:05:20.082Z,92.21
2022-11-19T00:06:21.073Z,91.90
2022-11-19T00:07:20.134Z,92.17
2022-11-19T00:08:20.052Z,91.96
2022-11-19T00:09:20.397Z,91.24
2022-11-19T00:10:20.022Z,91.44
2022-11-19T00:11:20.024Z,91.65
2022-11-19T00:12:19.982Z,91.75
2022-11-19T00:13:19.982Z,91.24
2022-11-19T00:14:19.973Z,91.44
2022-11-19T00:15:19.972Z,91.65
2022-11-19T00:16:20.961Z,91.13
2022-11-19T00:17:20.952Z,91.38
2022-11-19T00:18:19.905Z,91.90
2022-11-19T00:19:21.207Z,91.84
2022-11-19T00:20:19.872Z,92.25
2022-11-19T00:21:20.864Z,92.50
2022-11-19T00:22:20.862Z,93.23
2022-11-19T00:23:19.844Z,93.85
2022-11-19T00:24:19.833Z,94.20
2022-11-19T00:25:19.812Z,94.41
2022-11-19T00:26:24.002Z,94.41
2022-11-19T00:27:19.796Z,94.41
2022-11-19T00:28:19.785Z,94.62
2022-11-19T00:29:20.089Z,94.87
2022-11-19T00:30:40.945Z,94.87
2022-11-19T00:31:20.753Z,95.14
2022-11-19T00:32:20.736Z,95.44
2022-11-19T00:33:19.724Z,95.24
2022-11-19T00:34:19.733Z,94.93
2022-11-19T00:35:19.694Z,95.03
2022-11-19T00:36:19.702Z,95.14
2022-11-19T00:37:19.657Z,95.18
2022-11-19T00:38:19.696Z,95.34
2022-11-19T00:39:19.765Z,95.44
2022-11-19T00:40:19.637Z,95.34
2022-11-19T00:41:19.648Z,95.14
2022-11-19T00:42:19.606Z,95.14
2022-11-19T00:43:21.631Z,95.34
2022-11-19T00:44:19.586Z,95.29
2022-11-19T00:45:19.566Z,94.47
2022-11-19T00:46:19.580Z,94.47
2022-11-19T00:47:19.543Z,94.43
2022-11-19T00:48:19.527Z,93.35
2022-11-19T00:49:19.834Z,92.48
2022-11-19T00:50:19.487Z,91.34
2022-11-19T00:51:19.486Z,91.03
2022-11-19T00:52:19.489Z,91.09
2022-11-19T00:53:19.468Z,90.37
2022-11-19T00:54:20.475Z,90.16
2022-11-19T00:55:19.444Z,89.23
2022-11-19T00:56:19.435Z,89.65
2022-11-19T00:57:19.408Z,89.75
2022-11-19T00:58:20.399Z,88.41
2022-11-19T00:59:19.591Z,88.71
2022-11-19T01:00:19.380Z,88.71
2022-11-19T01:01:19.417Z,88.71
2022-11-19T01:02:20.369Z,88.92
2022-11-19T01:03:19.330Z,88.86
2022-11-19T01:04:19.318Z,89.79
2022-11-19T01:05:19.320Z,89.73
2022-11-19T01:06:19.758Z,89.48
2022-11-19T01:07:19.307Z,89.69
2022-11-19T01:08:19.268Z,88.82
2022-11-19T01:09:19.627Z,87.99
2022-11-19T01:10:19.250Z,88.14
2022-11-19T01:11:20.205Z,89.28
2022-11-19T01:12:19.241Z,88.70
2022-11-19T01:13:19.193Z,88.80
2022-11-19T01:14:20.200Z,89.42
2022-11-19T01:15:19.181Z,88.80
2022-11-19T01:16:19.171Z,88.53
2022-11-19T01:17:19.160Z,88.94
2022-11-19T01:18:19.131Z,88.98
2022-11-19T01:19:19.442Z,89.54
2022-11-19T01:20:19.162Z,90.99
2022-11-19T01:21:19.101Z,91.51
2022-11-19T01:22:19.089Z,91.55
2022-11-19T01:23:19.061Z,92.01
2022-11-19T01:24:19.052Z,93.35
2022-11-19T01:25:19.032Z,93.35
2022-11-19T01:26:19.013Z,92.84
2022-11-19T01:27:19.032Z,92.94
2022-11-19T01:28:19.015Z,92.88
2022-11-19T01:29:20.354Z,93.08
2022-11-19T01:30:18.986Z,92.68
2022-11-19T01:31:18.952Z,93.19
2022-11-19T01:32:18.963Z,93.50
2022-11-19T01:33:18.932Z,93.66
2022-11-19T01:34:18.912Z,93.21
2022-11-19T01:35:18.922Z,92.90
2022-11-19T01:36:18.907Z,91.97
2022-11-19T01:37:19.884Z,91.70
2022-11-19T01:38:18.884Z,92.49
2022-11-19T01:39:19.200Z,91.76
2022-11-19T01:40:19.834Z,91.76
2022-11-19T01:41:18.836Z,91.24
2022-11-19T01:42:20.844Z,91.35
2022-11-19T01:43:18.816Z,91.72
2022-11-19T01:44:18.809Z,91.41
2022-11-19T01:45:18.815Z,90.99
2022-11-19T01:46:18.765Z,90.47
2022-11-19T01:47:18.764Z,90.83
2022-11-19T01:48:18.741Z,91.18
2022-11-19T01:49:19.085Z,91.70
2022-11-19T01:50:18.713Z,92.57
2022-11-19T01:51:18.696Z,93.19
2022-11-19T01:52:18.715Z,93.54
2022-11-19T01:53:18.667Z,93.54
2022-11-19T01:54:18.665Z,93.75
2022-11-19T01:55:18.667Z,93.80
2022-11-19T01:56:18.656Z,93.80
2022-11-19T01:57:18.637Z,94.01
2022-11-19T01:58:18.605Z,93.96
2022-11-19T01:59:19.079Z,93.85
2022-11-19T02:00:18.587Z,93.60
2022-11-19T02:01:18.604Z,93.19
2022-11-19T02:02:18.576Z,92.78
2022-11-19T02:03:18.539Z,92.47
2022-11-19T02:04:18.534Z,92.16
2022-11-19T02:05:18.528Z,92.16
2022-11-19T02:06:18.507Z,92.16
2022-11-19T02:07:18.542Z,92.57
2022-11-19T02:08:18.483Z,92.98
2022-11-19T02:09:18.735Z,93.19
2022-11-19T02:10:19.437Z,93.33
2022-11-19T02:11:18.461Z,93.19
2022-11-19T02:12:18.490Z,93.29
2022-11-19T02:13:19.458Z,93.40
2022-11-19T02:14:18.407Z,92.98
2022-11-19T02:15:18.469Z,93.08
2022-11-19T02:16:18.446Z,93.08
2022-11-19T02:17:18.388Z,92.47
2022-11-19T02:18:18.372Z,91.99
2022-11-19T02:19:18.667Z,92.24
2022-11-19T02:20:18.329Z,92.59
2022-11-19T02:21:18.326Z,92.69
2022-11-19T02:22:18.309Z,92.84
2022-11-19T02:23:18.299Z,93.20
2022-11-19T02:24:18.261Z,93.62
2022-11-19T02:25:18.283Z,93.87
2022-11-19T02:26:19.259Z,94.28
2022-11-19T02:27:18.239Z,94.80
2022-11-19T02:28:18.240Z,94.95
2022-11-19T02:29:18.561Z,95.15
2022-11-19T02:30:18.189Z,95.67
2022-11-19T02:31:18.206Z,95.89
2022-11-19T02:32:18.150Z,96.03
2022-11-19T02:33:18.161Z,95.93
2022-11-19T02:34:18.141Z,95.93
2022-11-19T02:35:18.120Z,95.93
2022-11-19T02:36:19.131Z,96.18
2022-11-19T02:37:18.110Z,96.28
2022-11-19T02:38:18.098Z,96.39
2022-11-19T02:39:18.508Z,96.39
2022-11-19T02:40:18.059Z,96.28
2022-11-19T02:41:19.104Z,96.49
2022-11-19T02:42:19.103Z,96.59
2022-11-19T02:43:18.088Z,96.49
2022-11-19T02:44:18.042Z,96.59
2022-11-19T02:45:17.994Z,96.59
2022-11-19T02:46:17.982Z,96.70
2022-11-19T02:47:17.952Z,96.70
2022-11-19T02:48:17.960Z,96.97
2022-11-19T02:49:18.381Z,97.07
2022-11-19T02:50:17.934Z,97.17
2022-11-19T02:51:17.941Z,97.07
2022-11-19T02:52:17.950Z,97.07
2022-11-19T02:53:17.960Z,97.13
2022-11-19T02:54:18.001Z,97.34
2022-11-19T02:55:17.953Z,97.34
2022-11-19T02:56:17.895Z,97.24
2022-11-19T02:57:17.862Z,97.13
2022-11-19T02:58:17.875Z,97.03
2022-11-19T02:59:18.060Z,97.13
2022-11-19T03:00:17.849Z,97.44
2022-11-19T03:01:17.854Z,97.40
2022-11-19T03:02:17.761Z,97.30
2022-11-19T03:03:17.822Z,97.09
2022-11-19T03:04:17.766Z,97.09
2022-11-19T03:05:18.762Z,96.98
2022-11-19T03:06:17.744Z,96.78
2022-11-19T03:07:18.776Z,96.57
2022-11-19T03:08:17.682Z,96.67
2022-11-19T03:09:18.112Z,96.67
2022-11-19T03:10:17.710Z,96.67
2022-11-19T03:11:17.654Z,96.78
2022-11-19T03:12:17.732Z,96.78
2022-11-19T03:13:17.662Z,96.47
2022-11-19T03:14:18.610Z,96.67
2022-11-19T03:15:17.631Z,96.36
2022-11-19T03:16:17.613Z,96.47
2022-11-19T03:17:18.633Z,96.67
2022-11-19T03:18:18.623Z,96.78
2022-11-19T03:19:17.969Z,96.78
2022-11-19T03:20:17.587Z,96.78
2022-11-19T03:21:17.513Z,96.78
2022-11-19T03:22:18.513Z,96.52
2022-11-19T03:23:17.517Z,96.73
2022-11-19T03:24:17.486Z,96.48
2022-11-19T03:25:17.533Z,96.11
2022-11-19T03:26:17.488Z,96.00
2022-11-19T03:27:17.506Z,95.96
2022-11-19T03:28:17.445Z,95.69
2022-11-19T03:29:17.798Z,95.48
2022-11-19T03:30:17.453Z,95.48
2022-11-19T03:31:17.427Z,95.38
2022-11-19T03:32:17.385Z,95.79
2022-11-19T03:33:17.397Z,95.75
2022-11-19T03:34:17.366Z,95.54
2022-11-19T03:35:17.365Z,95.44
2022-11-19T03:36:17.315Z,95.44
2022-11-19T03:37:17.318Z,95.75
2022-11-19T03:38:18.316Z,95.65
2022-11-19T03:39:17.793Z,95.75
2022-11-19T03:40:17.307Z,95.44
2022-11-19T03:41:17.255Z,95.29
2022-11-19T03:42:17.249Z,95.09
2022-11-19T03:43:18.236Z,94.84
2022-11-19T03:44:17.236Z,94.17
2022-11-19T03:45:17.216Z,93.65
2022-11-19T03:46:17.226Z,93.02
2022-11-19T03:47:17.177Z,92.72
2022-11-19T03:48:18.189Z,92.68
2022-11-19T03:49:17.517Z,92.16
2022-11-19T04:03:25.164Z,89.94
2022-11-19T04:04:25.114Z,89.83
2022-11-19T04:05:25.114Z,90.50
2022-11-19T04:06:25.085Z,90.91
2022-11-19T04:07:27.201Z,91.02
2022-11-19T04:08:25.052Z,90.95
2022-11-19T04:09:25.082Z,91.27
2022-11-19T04:10:25.053Z,91.78
2022-11-19T04:12:37.213Z,91.47
2022-11-19T04:13:38.194Z,91.47
2022-11-19T04:14:37.192Z,91.78
2022-11-19T04:15:37.194Z,92.20
2022-11-19T04:16:37.172Z,91.85
2022-11-19T04:17:37.145Z,91.22
2022-11-19T04:18:37.144Z,90.81
2022-11-19T04:19:37.147Z,90.81
2022-11-19T04:20:37.142Z,90.50
2022-11-19T04:21:37.082Z,91.02
2022-11-19T04:22:37.127Z,91.22
2022-11-19T04:23:38.083Z,91.22
2022-11-19T04:24:37.063Z,91.12
2022-11-19T04:25:37.064Z,90.70
2022-11-19T04:26:38.025Z,90.77
2022-11-19T04:27:37.025Z,90.50
2022-11-19T04:28:37.015Z,90.19
2022-11-19T04:29:37.013Z,90.60
2022-11-19T04:30:36.996Z,90.29
2022-11-19T04:31:36.956Z,89.98
2022-11-19T04:32:36.964Z,89.56
2022-11-19T04:33:36.944Z,90.23
2022-11-19T04:34:36.945Z,90.33
2022-11-19T04:35:36.924Z,90.48
2022-11-19T04:36:36.914Z,91.20
2022-11-19T04:37:36.908Z,90.79
2022-11-19T04:38:36.873Z,91.14
2022-11-19T04:39:36.869Z,90.93
2022-11-19T04:40:36.891Z,91.60
2022-11-19T04:41:36.847Z,91.91
2022-11-19T04:42:36.809Z,92.88
2022-11-19T04:43:36.804Z,93.51
2022-11-19T04:44:36.807Z,93.51
2022-11-19T04:45:36.795Z,93.93
2022-11-19T04:46:36.776Z,94.09
2022-11-19T04:47:36.766Z,93.99
2022-11-19T04:48:36.747Z,93.32
2022-11-19T04:49:36.752Z,93.07
2022-11-19T04:50:36.823Z,92.86
2022-11-19T04:51:36.778Z,91.99
2022-11-19T04:52:40.882Z,91.47
2022-11-19T04:53:36.684Z,91.27
2022-11-19T04:54:36.704Z,91.37
2022-11-19T04:55:36.636Z,91.20
2022-11-19T04:56:37.661Z,91.83
2022-11-19T04:57:36.666Z,91.83
2022-11-19T04:58:36.646Z,92.35
2022-11-19T04:59:36.636Z,91.62
2022-11-19T05:00:36.697Z,91.72
2022-11-19T05:01:36.733Z,91.76
2022-11-19T05:02:36.684Z,92.03
2022-11-19T05:03:36.679Z,92.24
2022-11-19T05:04:36.600Z,91.93
2022-11-19T05:05:36.542Z,91.45
2022-11-19T05:06:36.577Z,92.07
2022-11-19T05:07:36.621Z,92.80
2022-11-19T05:08:36.489Z,92.97
2022-11-19T05:09:36.490Z,92.59
2022-11-19T05:10:36.478Z,92.59
2022-11-19T05:11:36.501Z,93.01
2022-11-19T05:12:36.509Z,92.90
2022-11-19T05:13:36.428Z,92.69
2022-11-19T05:14:36.429Z,92.43
2022-11-19T05:15:36.471Z,92.94
2022-11-19T05:16:37.469Z,93.57
2022-11-19T05:17:36.490Z,93.68
2022-11-19T05:18:36.386Z,93.68
2022-11-19T05:19:36.351Z,93.68
2022-11-19T05:20:36.410Z,93.84
2022-11-19T05:21:36.309Z,93.63
2022-11-19T05:22:36.391Z,93.22
2022-11-19T05:23:36.390Z,93.22
2022-11-19T05:24:37.313Z,93.01
2022-11-19T05:25:36.353Z,92.69
2022-11-19T05:26:36.339Z,92.97
2022-11-19T05:27:36.320Z,92.30
2022-11-19T05:28:40.127Z,91.20
2022-11-19T05:29:36.211Z,91.72
2022-11-19T05:30:38.200Z,91.83
2022-11-19T05:31:36.276Z,92.14
2022-11-19T05:32:36.189Z,92.14
2022-11-19T05:33:36.249Z,91.97
2022-11-19T05:34:36.142Z,92.59
2022-11-19T05:35:36.196Z,93.12
2022-11-19T05:36:36.175Z,93.01
2022-11-19T05:37:36.222Z,93.38
2022-11-19T05:38:36.194Z,92.66
2022-11-19T05:39:36.085Z,92.24
2022-11-19T05:40:36.140Z,92.03
2022-11-19T05:41:36.134Z,92.35
2022-11-19T05:42:36.111Z,92.28
2022-11-19T05:43:36.039Z,91.97
2022-11-19T05:44:36.042Z,92.49
2022-11-19T05:45:36.074Z,92.69
2022-11-19T05:46:36.034Z,93.01
2022-11-19T05:47:36.090Z,93.05
2022-11-19T05:48:36.973Z,93.32
2022-11-19T05:49:35.962Z,93.53
2022-11-19T05:50:35.983Z,92.90
2022-11-19T05:51:36.002Z,92.59
2022-11-19T05:52:35.901Z,92.72
2022-11-19T05:53:36.934Z,91.80
2022-11-19T05:54:35.891Z,90.35
2022-11-19T05:55:35.923Z,88.76
2022-11-19T05:56:35.890Z,88.55
2022-11-19T05:57:36.969Z,87.72
2022-11-19T05:58:36.003Z,87.51
2022-11-19T05:59:38.485Z,87.45
2022-11-19T06:00:36.883Z,88.21
2022-11-19T06:01:35.853Z,88.73
2022-11-19T06:02:35.880Z,89.25
2022-11-19T06:03:35.833Z,89.29
2022-11-19T06:04:35.843Z,89.46
2022-11-19T06:05:39.995Z,89.36
2022-11-19T06:06:35.767Z,88.42
2022-11-19T06:07:35.836Z,88.98
2022-11-19T06:08:35.793Z,89.81
2022-11-19T06:09:35.783Z,90.02
2022-11-19T06:10:35.727Z,89.50
2022-11-19T06:11:35.666Z,89.29
2022-11-19T06:12:35.694Z,88.88
2022-11-19T06:13:35.747Z,89.65
2022-11-19T06:14:35.714Z,90.17
2022-11-19T06:15:35.616Z,90.06
2022-11-19T06:16:35.674Z,90.06
2022-11-19T06:17:35.675Z,90.52
2022-11-19T06:18:35.636Z,90.93
2022-11-19T06:19:35.663Z,91.80
2022-11-19T06:20:35.545Z,92.01
2022-11-19T06:21:35.595Z,92.18
2022-11-19T06:22:35.543Z,91.66
2022-11-19T06:23:35.587Z,91.45
2022-11-19T06:24:35.586Z,91.76
2022-11-19T06:25:35.484Z,91.91
2022-11-19T06:26:35.539Z,92.32
2022-11-19T06:27:35.587Z,92.28
2022-11-19T06:28:35.528Z,91.97
2022-11-19T06:29:35.535Z,92.28
2022-11-19T06:30:35.426Z,92.18
2022-11-19T06:31:35.477Z,92.38
2022-11-19T06:32:56.493Z,91.66
2022-11-19T06:33:35.385Z,92.01
2022-11-19T06:34:35.386Z,92.49
2022-11-19T06:35:35.565Z,92.38
2022-11-19T06:36:40.427Z,91.76
2022-11-19T06:37:36.389Z,91.76
2022-11-19T06:38:35.295Z,91.55
2022-11-19T06:40:11.018Z,92.32
2022-11-19T06:40:35.269Z,92.53
2022-11-19T06:41:35.336Z,93.16
2022-11-19T06:42:35.316Z,93.12
2022-11-19T06:43:36.330Z,92.59
2022-11-19T06:44:36.238Z,91.97
2022-11-19T06:45:35.348Z,91.86
2022-11-19T06:46:35.217Z,91.78
2022-11-19T06:47:35.264Z,90.39
2022-11-19T06:48:35.232Z,88.48
2022-11-19T06:49:35.188Z,87.66
2022-11-19T06:50:35.269Z,87.55
2022-11-19T06:51:35.206Z,87.55
2022-11-19T06:52:35.169Z,87.55
2022-11-19T06:53:35.165Z,87.38
2022-11-19T06:54:38.839Z,87.28
2022-11-19T06:55:36.100Z,87.80
2022-11-19T06:56:35.080Z,88.46
2022-11-19T06:57:35.058Z,88.26
2022-11-19T06:58:35.042Z,88.46
2022-11-19T06:59:35.048Z,88.61
2022-11-19T07:00:35.018Z,89.34
2022-11-19T07:01:35.056Z,89.34
2022-11-19T07:02:34.999Z,89.37
2022-11-19T07:03:35.031Z,90.00
2022-11-19T07:04:34.981Z,89.94
2022-11-19T07:05:34.959Z,90.93
2022-11-19T07:06:34.964Z,90.75
2022-11-19T07:07:35.022Z,89.71
2022-11-19T07:08:34.929Z,89.29
2022-11-19T07:09:34.910Z,89.40
2022-11-19T07:10:34.943Z,88.73
2022-11-19T07:11:34.882Z,88.11
2022-11-19T07:12:34.863Z,86.62
2022-11-19T07:13:34.852Z,87.28
2022-11-19T07:14:34.833Z,87.59
2022-11-19T07:15:34.900Z,87.07
2022-11-19T07:16:34.866Z,86.76
2022-11-19T07:17:34.812Z,86.72
2022-11-19T07:18:34.794Z,85.69
2022-11-19T07:19:34.791Z,85.58
2022-11-19T07:20:34.762Z,85.44
2022-11-19T07:21:34.825Z,83.99
2022-11-19T07:22:34.734Z,85.06
2022-11-19T07:23:34.707Z,86.15
2022-11-19T07:24:34.696Z,86.91
2022-11-19T07:25:34.703Z,87.18
2022-11-19T07:26:34.702Z,86.52
2022-11-19T07:27:34.672Z,86.21
2022-11-19T07:28:34.725Z,85.94
2022-11-19T07:29:34.711Z,86.15
2022-11-19T07:30:34.646Z,86.10
2022-11-19T07:31:34.623Z,85.48
2022-11-19T07:32:34.593Z,85.06
2022-11-19T07:33:34.583Z,84.51
2022-11-19T07:34:34.582Z,84.09
2022-11-19T07:35:34.572Z,83.47
2022-11-19T07:36:34.563Z,83.26
2022-11-19T07:37:34.542Z,84.55
2022-11-19T07:38:37.144Z,84.86
2022-11-19T07:39:34.510Z,85.17
2022-11-19T07:40:34.524Z,84.65
2022-11-19T07:41:34.483Z,84.86
2022-11-19T07:42:34.473Z,84.82
2022-11-19T07:43:34.455Z,83.72
2022-11-19T07:44:34.443Z,85.06
2022-11-19T07:45:34.430Z,85.73
2022-11-19T07:46:34.433Z,85.42
2022-11-19T07:47:34.440Z,85.66
2022-11-19T07:48:34.395Z,86.08
2022-11-19T07:49:34.384Z,86.74
2022-11-19T07:50:34.390Z,86.22
2022-11-19T07:51:34.377Z,86.54
2022-11-19T07:52:34.356Z,86.57
2022-11-19T07:53:34.329Z,87.24
2022-11-19T07:54:34.305Z,88.21
2022-11-19T07:55:34.294Z,89.15
2022-11-19T07:56:34.304Z,89.52
2022-11-19T07:57:34.295Z,89.21
2022-11-19T07:58:34.255Z,88.94
2022-11-19T07:59:34.256Z,89.67
2022-11-19T08:00:34.236Z,89.73
2022-11-19T08:01:34.254Z,89.17
2022-11-19T08:02:34.234Z,88.23
2022-11-19T08:03:34.211Z,88.34
2022-11-19T08:04:34.182Z,87.99
2022-11-19T08:05:34.187Z,87.63
2022-11-19T08:06:34.158Z,87.01
2022-11-19T08:07:34.196Z,85.31
2022-11-19T08:08:34.131Z,84.48
2022-11-19T08:09:34.108Z,85.00
2022-11-19T08:10:34.113Z,85.00
2022-11-19T08:11:34.118Z,85.66
2022-11-19T08:12:34.098Z,85.94
2022-11-19T08:13:34.070Z,85.35
2022-11-19T08:14:34.034Z,85.97
2022-11-19T08:15:34.040Z,85.97
2022-11-19T08:16:34.023Z,85.73
2022-11-19T08:17:34.015Z,85.25
2022-11-19T08:18:34.017Z,85.83
2022-11-19T08:19:33.998Z,85.21
2022-11-19T08:20:33.978Z,84.75
2022-11-19T08:21:33.948Z,83.83
2022-11-19T08:22:33.971Z,84.13
2022-11-19T08:23:33.928Z,84.03
2022-11-19T08:24:33.926Z,84.23
2022-11-19T08:25:33.918Z,83.51
2022-11-19T08:26:33.913Z,83.26
2022-11-19T08:27:33.900Z,83.10
2022-11-19T08:28:33.884Z,83.24
2022-11-19T08:29:33.857Z,84.48
2022-11-19T08:30:33.851Z,84.48
2022-11-19T08:31:34.841Z,84.17
2022-11-19T08:32:33.819Z,83.76
2022-11-19T08:33:33.829Z,84.63
2022-11-19T08:34:33.798Z,85.46
2022-11-19T08:35:33.789Z,84.83
2022-11-19T08:36:34.860Z,84.73
2022-11-19T08:37:33.771Z,85.56
2022-11-19T08:38:38.410Z,85.46
2022-11-19T08:39:34.733Z,85.35
2022-11-19T08:40:33.719Z,85.56
2022-11-19T08:41:34.707Z,85.81
2022-11-19T08:42:33.790Z,86.57
2022-11-19T08:43:33.699Z,86.57
2022-11-19T08:44:33.660Z,87.03
2022-11-19T08:45:33.678Z,87.65
2022-11-19T08:46:33.634Z,88.17
2022-11-19T08:47:33.640Z,87.92
2022-11-19T08:48:33.657Z,86.74
2022-11-19T08:49:33.634Z,86.12
2022-11-19T08:50:33.641Z,85.71
2022-11-19T08:51:33.599Z,86.41
2022-11-19T08:52:33.667Z,87.79
2022-11-19T08:53:34.614Z,88.73
2022-11-19T08:54:33.565Z,88.42
2022-11-19T08:55:33.583Z,88.84
2022-11-19T08:56:33.552Z,89.46
2022-11-19T08:57:33.490Z,89.67
2022-11-19T08:58:33.520Z,89.18
2022-11-19T08:59:33.491Z,89.77
2022-11-19T09:00:33.543Z,89.62
2022-11-19T09:01:33.513Z,88.59
2022-11-19T09:02:33.520Z,88.44
2022-11-19T09:03:33.451Z,87.51
2022-11-19T09:04:33.425Z,87.82
2022-11-19T09:05:34.473Z,86.99
2022-11-19T09:06:33.441Z,86.88
2022-11-19T09:07:33.528Z,86.99
2022-11-19T09:08:33.397Z,86.57
2022-11-19T09:09:33.372Z,86.85
2022-11-19T09:10:34.556Z,86.33
2022-11-19T09:11:35.370Z,86.88
2022-11-19T09:12:33.344Z,87.09
2022-11-19T09:13:33.312Z,87.34
2022-11-19T09:14:33.390Z,86.82
2022-11-19T09:15:33.308Z,87.55
2022-11-19T09:16:33.354Z,87.03
2022-11-19T09:17:33.316Z,87.90
2022-11-19T09:18:33.362Z,88.42
2022-11-19T09:19:33.326Z,88.31
2022-11-19T09:20:33.748Z,87.90
2022-11-19T09:21:33.275Z,88.34
2022-11-19T09:22:33.281Z,87.30
2022-11-19T09:23:33.284Z,86.54
2022-11-19T09:24:33.251Z,85.35
2022-11-19T09:25:33.165Z,84.07
2022-11-19T09:26:33.165Z,84.11
2022-11-19T09:27:33.177Z,85.19
2022-11-19T09:28:55.151Z,85.33
2022-11-19T09:29:33.142Z,85.85
2022-11-19T09:30:33.144Z,85.85
2022-11-19T09:31:35.177Z,85.64
2022-11-19T09:32:35.180Z,85.53
2022-11-19T09:33:33.274Z,86.26
2022-11-19T09:34:33.055Z,86.33
2022-11-19T09:35:33.051Z,85.71
2022-11-19T09:36:33.093Z,85.08
2022-11-19T09:37:33.065Z,85.29
2022-11-19T09:38:33.085Z,85.08
2022-11-19T09:39:32.986Z,84.88
2022-11-19T09:40:33.984Z,85.33
2022-11-19T09:41:32.974Z,85.95
2022-11-19T09:42:33.079Z,86.57
2022-11-19T09:43:33.085Z,86.88
2022-11-19T09:44:33.004Z,86.33
2022-11-19T09:45:34.011Z,86.12
2022-11-19T09:46:32.897Z,86.12
2022-11-19T09:47:32.916Z,86.16
2022-11-19T10:03:37.458Z,89.25
2022-11-19T10:04:37.650Z,88.94
2022-11-19T10:05:37.437Z,89.04
2022-11-19T10:06:37.440Z,89.36
2022-11-19T10:07:37.495Z,89.46
2022-11-19T10:08:37.473Z,89.42
2022-11-19T10:09:38.433Z,88.96
2022-11-19T10:10:37.518Z,88.02
2022-11-19T10:11:37.378Z,87.40
2022-11-19T10:12:37.369Z,87.47
2022-11-19T10:13:37.379Z,86.85
2022-11-19T10:14:39.355Z,86.26
2022-11-19T10:15:38.155Z,86.99
2022-11-19T10:16:37.396Z,87.30
2022-11-19T10:17:37.299Z,87.26
2022-11-19T10:18:37.308Z,86.39
2022-11-19T10:19:37.398Z,85.77
2022-11-19T10:20:37.326Z,85.60
2022-11-19T10:21:38.256Z,86.57
2022-11-19T10:22:37.236Z,86.95
2022-11-19T10:23:37.241Z,86.64
2022-11-19T10:24:37.247Z,86.99
2022-11-19T10:25:37.277Z,86.78
2022-11-19T10:26:37.258Z,86.54
2022-11-19T10:27:37.208Z,86.54
2022-11-19T10:28:37.170Z,86.74
2022-11-19T10:29:37.179Z,87.05
2022-11-19T10:30:37.234Z,86.95
2022-11-19T10:31:37.234Z,86.74
2022-11-19T10:32:37.100Z,87.19
2022-11-19T10:33:37.141Z,87.82
2022-11-19T10:34:37.113Z,87.82
2022-11-19T10:35:37.181Z,87.96
2022-11-19T10:36:37.126Z,88.28
2022-11-19T10:37:37.036Z,88.52
2022-11-19T10:38:37.041Z,89.50
2022-11-19T10:39:37.081Z,89.81
2022-11-19T10:40:37.091Z,90.23
2022-11-19T10:41:37.045Z,91.16
2022-11-19T10:42:36.953Z,90.91
2022-11-19T10:43:36.965Z,90.75
2022-11-19T10:44:36.974Z,90.64
2022-11-19T10:45:37.013Z,90.54
2022-11-19T10:46:36.920Z,90.95
2022-11-19T10:47:37.008Z,91.37
2022-11-19T10:48:37.921Z,91.72
2022-11-19T10:49:36.919Z,91.89
2022-11-19T10:50:36.953Z,91.68
2022-11-19T10:51:36.922Z,91.27
2022-11-19T10:52:37.203Z,91.16
2022-11-19T10:53:36.827Z,91.52
2022-11-19T10:54:37.867Z,92.03
2022-11-19T10:55:36.843Z,92.24
2022-11-19T10:56:36.774Z,92.24
2022-11-19T10:57:36.775Z,92.14
2022-11-19T10:58:36.763Z,92.45
2022-11-19T10:59:36.746Z,92.18
2022-11-19T11:00:37.804Z,92.29
2022-11-19T11:01:36.743Z,92.08
2022-11-19T11:02:36.710Z,92.18
2022-11-19T11:03:36.707Z,92.49
2022-11-19T11:04:36.656Z,92.86
2022-11-19T11:05:37.793Z,92.45
2022-11-19T11:06:36.655Z,92.14
2022-11-19T11:07:36.674Z,91.72
2022-11-19T11:08:37.626Z,92.45
2022-11-19T11:09:36.615Z,92.49
2022-11-19T11:10:37.617Z,92.29
2022-11-19T11:11:36.591Z,92.97
2022-11-19T11:12:37.557Z,92.86
2022-11-19T11:13:36.564Z,92.30
2022-11-19T11:14:36.535Z,91.78
2022-11-19T11:15:36.567Z,91.33
2022-11-19T11:16:37.923Z,91.33
2022-11-19T11:17:36.531Z,90.87
2022-11-19T11:18:37.485Z,89.62
2022-11-19T11:19:36.482Z,89.15
2022-11-19T11:20:36.483Z,89.25
2022-11-19T11:21:36.445Z,89.56
2022-11-19T11:22:36.452Z,89.87
2022-11-19T11:23:37.446Z,90.39
2022-11-19T11:24:36.405Z,90.50
2022-11-19T11:25:36.418Z,89.36
2022-11-19T11:26:36.367Z,89.67
2022-11-19T11:27:36.386Z,90.39
2022-11-19T11:28:36.355Z,90.35
2022-11-19T11:29:36.339Z,89.98
2022-11-19T11:30:36.359Z,89.98
2022-11-19T11:31:36.328Z,90.50
2022-11-19T11:32:36.298Z,90.81
2022-11-19T11:33:36.330Z,90.50
2022-11-19T11:34:36.299Z,90.56
2022-11-19T11:35:36.267Z,89.58
2022-11-19T11:36:36.241Z,89.37
2022-11-19T11:38:46.457Z,88.34
2022-11-19T11:41:30.056Z,90.29
2022-11-19T11:42:07.177Z,90.70
2022-11-19T11:43:00.755Z,90.85
2022-11-19T11:43:58.679Z,91.27
2022-11-19T11:44:57.795Z,91.33
2022-11-19T11:45:57.650Z,91.53
2022-11-19T11:46:57.706Z,90.66
2022-11-19T11:47:57.619Z,90.35
2022-11-19T11:49:04.714Z,90.20
2022-11-19T11:49:58.922Z,89.06
2022-11-19T11:50:57.616Z,88.44
2022-11-19T11:51:57.578Z,88.54
2022-11-19T11:52:57.549Z,88.75
2022-11-19T11:53:57.628Z,88.96
2022-11-19T11:54:57.568Z,89.17
2022-11-19T11:55:57.535Z,89.27
2022-11-19T11:56:57.572Z,88.85
2022-11-19T11:57:59.549Z,88.54
2022-11-19T11:58:58.479Z,89.37
2022-11-19T11:59:57.567Z,89.52
2022-11-19T12:00:57.496Z,89.37
2022-11-19T12:01:57.547Z,89.17
2022-11-19T12:02:57.500Z,88.75
2022-11-19T12:03:57.387Z,88.90
2022-11-19T12:04:57.518Z,89.21
2022-11-19T12:05:57.468Z,89.81
2022-11-19T12:06:57.428Z,90.54
2022-11-19T12:07:57.359Z,90.47
2022-11-19T12:08:57.341Z,91.41
2022-11-19T12:09:58.320Z,91.83
2022-11-19T12:10:57.356Z,91.72
2022-11-19T12:11:57.314Z,91.72
2022-11-19T12:12:57.291Z,91.83
2022-11-19T12:13:57.287Z,91.83
2022-11-19T12:14:58.249Z,91.78
2022-11-19T12:15:57.276Z,91.12
2022-11-19T12:16:57.241Z,90.45
2022-11-19T12:17:57.246Z,89.48
2022-11-19T12:18:57.232Z,88.85
2022-11-19T12:19:57.200Z,88.23
2022-11-19T12:20:57.191Z,88.13
2022-11-19T12:21:57.191Z,87.68
2022-11-19T12:22:57.196Z,87.16
2022-11-19T12:23:57.151Z,87.26
2022-11-19T12:24:57.140Z,86.95
2022-11-19T12:25:57.158Z,87.19
2022-11-19T12:26:58.136Z,87.51
2022-11-19T12:27:57.099Z,88.69
2022-11-19T12:28:57.079Z,89.21
2022-11-19T12:29:57.080Z,89.31
2022-11-19T12:30:57.088Z,88.90
2022-11-19T12:31:58.072Z,88.52
2022-11-19T12:32:57.074Z,89.25
2022-11-19T12:33:57.003Z,90.23
2022-11-19T12:34:57.153Z,90.91
2022-11-19T12:35:57.111Z,89.73
2022-11-19T12:36:57.067Z,88.75
2022-11-19T12:37:57.055Z,88.65
2022-11-19T12:38:57.003Z,88.44
2022-11-19T12:39:57.048Z,87.65
2022-11-19T12:40:57.050Z,88.28
2022-11-19T12:41:58.049Z,87.45
2022-11-19T12:42:56.979Z,88.00
2022-11-19T12:43:59.030Z,89.15
2022-11-19T12:44:56.940Z,89.62
2022-11-19T12:45:56.983Z,88.75
2022-11-19T12:46:56.959Z,87.82
2022-11-19T12:47:56.932Z,87.65
2022-11-19T12:48:56.833Z,88.62
2022-11-19T12:49:56.811Z,89.39
2022-11-19T12:50:56.909Z,89.81
2022-11-19T12:51:56.831Z,90.37
2022-11-19T12:52:56.832Z,90.89
2022-11-19T12:53:56.770Z,91.56
2022-11-19T12:55:19.849Z,92.22
2022-11-19T12:55:56.842Z,93.01
2022-11-19T12:58:06.963Z,92.76
2022-11-19T13:00:16.368Z,92.55
2022-11-19T13:02:34.120Z,91.95
2022-11-19T13:03:43.837Z,91.12
2022-11-19T13:04:51.566Z,90.91
2022-11-19T13:05:41.564Z,90.14
2022-11-19T13:06:41.528Z,89.37
2022-11-19T13:07:43.887Z,89.48
2022-11-19T13:08:34.956Z,88.20
2022-11-19T13:09:41.485Z,87.40
2022-11-19T13:12:46.836Z,88.44
2022-11-19T13:13:54.315Z,88.59
2022-11-19T13:15:12.845Z,89.21
2022-11-19T13:15:46.829Z,89.25
2022-11-19T13:18:27.547Z,89.81
2022-11-19T13:20:41.184Z,91.20
2022-11-19T13:22:04.277Z,91.20
2022-11-19T13:22:41.158Z,91.41
2022-11-19T13:24:51.372Z,92.24
2022-11-19T13:28:18.237Z,91.27
2022-11-19T13:29:25.764Z,90.85
2022-11-19T13:30:25.750Z,90.70
2022-11-19T13:31:26.235Z,90.29
2022-11-19T13:32:26.748Z,89.36
2022-11-19T13:33:26.932Z,89.81
2022-11-19T13:34:25.672Z,90.33
2022-11-19T13:35:25.669Z,90.39
2022-11-19T13:36:25.667Z,89.98